TVR3 NZAA-YSSY
Flight info
| Callsign | TVR3 |
|---|---|
| Flight time | N/A |
| Altitude | 36000 |
| Route | VELMO DCT 38S163E DCT PLUGA DCT RIKNI N774 MARLN |
| Aircraft | B742/H-SDFHIRWXY/L |
Departure
| Time | 2026-05-05 07:43 |
|---|---|
| Airport | Auckland International Airport (NZAA) |
Arrival
| Time | N/A |
|---|---|
| Airport | Sydney Kingsford Smith International Airport (YSSY) |
| Time | Latitude | Longitude | Altitude | Speed | Heading |
|---|---|---|---|---|---|
| 2026-05-05 07:11 | -37.00933 | 174.77852 | 31 ft | 0 kts | 341° |
| 2026-05-05 07:30 | -37.00940 | 174.77855 | 31 ft | 2 kts | 341° |
| 2026-05-05 07:30 | -37.00954 | 174.77861 | 30 ft | 2 kts | 341° |
| 2026-05-05 07:31 | -37.00969 | 174.77867 | 30 ft | 2 kts | 341° |
| 2026-05-05 07:31 | -37.00983 | 174.77873 | 29 ft | 2 kts | 339° |
| 2026-05-05 07:31 | -37.00996 | 174.77882 | 29 ft | 2 kts | 317° |
| 2026-05-05 07:31 | -37.01005 | 174.77898 | 30 ft | 2 kts | 300° |
| 2026-05-05 07:32 | -37.01011 | 174.77914 | 30 ft | 2 kts | 282° |
| 2026-05-05 07:32 | -37.01012 | 174.77933 | 30 ft | 2 kts | 265° |
| 2026-05-05 07:32 | -37.01008 | 174.77951 | 31 ft | 2 kts | 249° |
| 2026-05-05 07:32 | -37.01003 | 174.77969 | 31 ft | 2 kts | 250° |
| 2026-05-05 07:33 | -37.01000 | 174.77979 | 31 ft | 0 kts | 251° |
| 2026-05-05 07:37 | -37.01001 | 174.77974 | 31 ft | 2 kts | 251° |
| 2026-05-05 07:37 | -37.01017 | 174.77916 | 30 ft | 11 kts | 251° |
| 2026-05-05 07:37 | -37.01046 | 174.77806 | 27 ft | 14 kts | 251° |
| 2026-05-05 07:38 | -37.01078 | 174.77712 | 26 ft | 8 kts | 226° |
| 2026-05-05 07:38 | -37.01128 | 174.77702 | 25 ft | 7 kts | 158° |
| 2026-05-05 07:38 | -37.01171 | 174.77724 | 25 ft | 5 kts | 156° |
| 2026-05-05 07:38 | -37.01201 | 174.77739 | 26 ft | 3 kts | 157° |
| 2026-05-05 07:39 | -37.01220 | 174.77748 | 27 ft | 2 kts | 165° |
| 2026-05-05 07:39 | -37.01248 | 174.77743 | 28 ft | 6 kts | 216° |
| 2026-05-05 07:39 | -37.01277 | 174.77667 | 29 ft | 13 kts | 252° |
| 2026-05-05 07:39 | -37.01305 | 174.77557 | 30 ft | 12 kts | 251° |
| 2026-05-05 07:40 | -37.01334 | 174.77449 | 30 ft | 13 kts | 251° |
| 2026-05-05 07:40 | -37.01366 | 174.77328 | 29 ft | 15 kts | 251° |
| 2026-05-05 07:40 | -37.01403 | 174.77197 | 28 ft | 16 kts | 250° |
| 2026-05-05 07:40 | -37.01446 | 174.77112 | 29 ft | 6 kts | 206° |
| 2026-05-05 07:41 | -37.01495 | 174.77100 | 28 ft | 7 kts | 188° |
| 2026-05-05 07:41 | -37.01555 | 174.77087 | 27 ft | 9 kts | 188° |
| 2026-05-05 07:41 | -37.01611 | 174.77106 | 27 ft | 6 kts | 126° |
| 2026-05-05 07:41 | -37.01613 | 174.77151 | 27 ft | 4 kts | 71° |
| 2026-05-05 07:42 | -37.01574 | 174.77292 | 28 ft | 47 kts | 71° |
| 2026-05-05 07:42 | -37.01434 | 174.77791 | 33 ft | 38 kts | 70° |
| 2026-05-05 07:42 | -37.01284 | 174.78331 | 31 ft | 59 kts | 72° |
| 2026-05-05 07:42 | -37.01256 | 174.78439 | 31 ft | 4 kts | 72° |
| 2026-05-05 07:43 | -37.01208 | 174.78615 | 31 ft | 55 kts | 71° |
| 2026-05-05 07:43 | -37.01000 | 174.79376 | 31 ft | 127 kts | 71° |
| 2026-05-05 07:43 | -37.00649 | 174.80643 | 154 ft | 173 kts | 71° |
| 2026-05-05 07:43 | -37.00263 | 174.82054 | 894 ft | 172 kts | 70° |
| 2026-05-05 07:44 | -36.99865 | 174.83434 | 1670 ft | 174 kts | 67° |
| 2026-05-05 07:44 | -36.99456 | 174.84795 | 2444 ft | 164 kts | 67° |
| 2026-05-05 07:44 | -36.99078 | 174.86105 | 3018 ft | 160 kts | 67° |
| 2026-05-05 07:44 | -36.98682 | 174.87501 | 3227 ft | 180 kts | 68° |
| 2026-05-05 07:45 | -36.98266 | 174.88995 | 3625 ft | 189 kts | 68° |
| 2026-05-05 07:45 | -36.97824 | 174.90599 | 4024 ft | 200 kts | 68° |
| 2026-05-05 07:45 | -36.97375 | 174.92239 | 4403 ft | 196 kts | 69° |
| 2026-05-05 07:45 | -36.96939 | 174.93837 | 4801 ft | 195 kts | 69° |
| 2026-05-05 07:46 | -36.96497 | 174.95453 | 5188 ft | 203 kts | 69° |
| 2026-05-05 07:46 | -36.96028 | 174.97168 | 5577 ft | 210 kts | 69° |
| 2026-05-05 07:46 | -36.95551 | 174.98908 | 5971 ft | 217 kts | 69° |
| 2026-05-05 07:46 | -36.95060 | 175.00703 | 6376 ft | 222 kts | 70° |
| 2026-05-05 07:47 | -36.94934 | 175.02612 | 6782 ft | 228 kts | 104° |
| 2026-05-05 07:47 | -36.95757 | 175.04292 | 7189 ft | 235 kts | 140° |
| 2026-05-05 07:47 | -36.97229 | 175.05200 | 7606 ft | 239 kts | 159° |
| 2026-05-05 07:47 | -36.98842 | 175.05878 | 8044 ft | 249 kts | 160° |
| 2026-05-05 07:48 | -37.00511 | 175.06583 | 8544 ft | 255 kts | 159° |
| 2026-05-05 07:48 | -37.02185 | 175.07300 | 9073 ft | 259 kts | 159° |
| 2026-05-05 07:48 | -37.03936 | 175.07842 | 9572 ft | 264 kts | 180° |
| 2026-05-05 07:48 | -37.05710 | 175.07280 | 10050 ft | 268 kts | 213° |
| 2026-05-05 07:49 | -37.06988 | 175.05631 | 10530 ft | 264 kts | 245° |
| 2026-05-05 07:49 | -37.07683 | 175.03537 | 10945 ft | 267 kts | 253° |
| 2026-05-05 07:49 | -37.08302 | 175.01268 | 11280 ft | 281 kts | 253° |
| 2026-05-05 07:49 | -37.08951 | 174.98888 | 11578 ft | 297 kts | 253° |
| 2026-05-05 07:50 | -37.09635 | 174.96405 | 11877 ft | 313 kts | 252° |
| 2026-05-05 07:50 | -37.10367 | 174.93764 | 12175 ft | 329 kts | 252° |
| 2026-05-05 07:50 | -37.11137 | 174.90990 | 12474 ft | 346 kts | 252° |
| 2026-05-05 07:50 | -37.11950 | 174.88060 | 12765 ft | 362 kts | 252° |
| 2026-05-05 07:51 | -37.12780 | 174.85066 | 13265 ft | 372 kts | 252° |
| 2026-05-05 07:51 | -37.13638 | 174.81988 | 13787 ft | 375 kts | 252° |
| 2026-05-05 07:51 | -37.14593 | 174.78925 | 14324 ft | 378 kts | 248° |
| 2026-05-05 07:51 | -37.15636 | 174.75958 | 14863 ft | 379 kts | 247° |
| 2026-05-05 07:52 | -37.16722 | 174.72908 | 15401 ft | 381 kts | 248° |
| 2026-05-05 07:52 | -37.17789 | 174.69876 | 15944 ft | 383 kts | 248° |
| 2026-05-05 07:52 | -37.18851 | 174.66821 | 16489 ft | 384 kts | 248° |
| 2026-05-05 07:52 | -37.19903 | 174.63773 | 17035 ft | 386 kts | 249° |
| 2026-05-05 07:53 | -37.20974 | 174.60663 | 17589 ft | 391 kts | 249° |
| 2026-05-05 07:53 | -37.22056 | 174.57513 | 18221 ft | 397 kts | 249° |
| 2026-05-05 07:53 | -37.23151 | 174.54324 | 18827 ft | 400 kts | 249° |
| 2026-05-05 07:53 | -37.24253 | 174.51117 | 19442 ft | 402 kts | 249° |
| 2026-05-05 07:54 | -37.25343 | 174.47942 | 20045 ft | 404 kts | 249° |
| 2026-05-05 07:54 | -37.26459 | 174.44682 | 20656 ft | 405 kts | 249° |
| 2026-05-05 07:54 | -37.27564 | 174.41447 | 21261 ft | 406 kts | 249° |
| 2026-05-05 07:54 | -37.28599 | 174.38184 | 21868 ft | 406 kts | 251° |
| 2026-05-05 07:55 | -37.29598 | 174.34876 | 22481 ft | 407 kts | 252° |
| 2026-05-05 07:55 | -37.30586 | 174.31537 | 23095 ft | 407 kts | 252° |
| 2026-05-05 07:55 | -37.31562 | 174.28226 | 23678 ft | 408 kts | 252° |
| 2026-05-05 07:55 | -37.32553 | 174.24895 | 24177 ft | 411 kts | 252° |
| 2026-05-05 07:56 | -37.33559 | 174.21541 | 24675 ft | 414 kts | 251° |
| 2026-05-05 07:56 | -37.34581 | 174.18156 | 25174 ft | 417 kts | 251° |
| 2026-05-05 07:56 | -37.35610 | 174.14751 | 25673 ft | 420 kts | 251° |
| 2026-05-05 07:56 | -37.36654 | 174.11298 | 26176 ft | 422 kts | 251° |
| 2026-05-05 07:57 | -37.37683 | 174.07890 | 26668 ft | 423 kts | 251° |
| 2026-05-05 07:57 | -37.38727 | 174.04428 | 27112 ft | 426 kts | 251° |
| 2026-05-05 07:57 | -37.39776 | 174.00946 | 27549 ft | 428 kts | 250° |
| 2026-05-05 07:57 | -37.40844 | 173.97400 | 27990 ft | 430 kts | 250° |
| 2026-05-05 07:58 | -37.41910 | 173.93852 | 28429 ft | 431 kts | 250° |
| 2026-05-05 07:58 | -37.42976 | 173.90302 | 28868 ft | 432 kts | 250° |
| 2026-05-05 07:58 | -37.44050 | 173.86720 | 29309 ft | 433 kts | 250° |
| 2026-05-05 07:58 | -37.45110 | 173.83180 | 29748 ft | 433 kts | 250° |
| 2026-05-05 07:59 | -37.46158 | 173.79677 | 30183 ft | 432 kts | 250° |
| 2026-05-05 07:59 | -37.47222 | 173.76117 | 30629 ft | 432 kts | 250° |
| 2026-05-05 07:59 | -37.48275 | 173.72589 | 31071 ft | 431 kts | 250° |
| 2026-05-05 07:59 | -37.49320 | 173.69083 | 31512 ft | 430 kts | 250° |
| 2026-05-05 08:00 | -37.50366 | 173.65565 | 31913 ft | 430 kts | 250° |
| 2026-05-05 08:00 | -37.51409 | 173.62056 | 32242 ft | 432 kts | 250° |
| 2026-05-05 08:00 | -37.52458 | 173.58524 | 32570 ft | 433 kts | 250° |
| 2026-05-05 08:00 | -37.53509 | 173.54977 | 32899 ft | 435 kts | 250° |
| 2026-05-05 08:01 | -37.54565 | 173.51411 | 33230 ft | 436 kts | 249° |
| 2026-05-05 08:01 | -37.55625 | 173.47832 | 33562 ft | 437 kts | 249° |
| 2026-05-05 08:01 | -37.56685 | 173.44241 | 33893 ft | 438 kts | 249° |
| 2026-05-05 08:01 | -37.57745 | 173.40651 | 34189 ft | 439 kts | 249° |
| 2026-05-05 08:02 | -37.58801 | 173.37062 | 34484 ft | 440 kts | 249° |
| 2026-05-05 08:02 | -37.59871 | 173.33420 | 34782 ft | 441 kts | 250° |
| 2026-05-05 08:02 | -37.60918 | 173.29779 | 35079 ft | 442 kts | 250° |
| 2026-05-05 08:02 | -37.61956 | 173.26161 | 35333 ft | 443 kts | 250° |
| 2026-05-05 08:03 | -37.63009 | 173.22508 | 35538 ft | 446 kts | 250° |
| 2026-05-05 08:03 | -37.64078 | 173.18819 | 35743 ft | 449 kts | 250° |
| 2026-05-05 08:03 | -37.65147 | 173.15138 | 35982 ft | 452 kts | 250° |
| 2026-05-05 08:03 | -37.66225 | 173.11432 | 36128 ft | 456 kts | 250° |
| 2026-05-05 08:04 | -37.68432 | 173.03845 | 36307 ft | 465 kts | 250° |
| 2026-05-05 08:04 | -37.70660 | 172.96172 | 36411 ft | 470 kts | 250° |
| 2026-05-05 08:05 | -37.72917 | 172.88376 | 36412 ft | 477 kts | 250° |
| 2026-05-05 08:05 | -37.75188 | 172.80507 | 36488 ft | 478 kts | 250° |
| 2026-05-05 08:06 | -37.77452 | 172.72644 | 36510 ft | 476 kts | 250° |
| 2026-05-05 08:06 | -37.79700 | 172.64810 | 36410 ft | 475 kts | 250° |
| 2026-05-05 08:07 | -37.81942 | 172.56976 | 36398 ft | 475 kts | 250° |
| 2026-05-05 08:07 | -37.84166 | 172.49182 | 36398 ft | 475 kts | 250° |
| 2026-05-05 08:08 | -37.86396 | 172.41345 | 36398 ft | 475 kts | 250° |
| 2026-05-05 08:08 | -37.88633 | 172.33452 | 36402 ft | 475 kts | 250° |
| 2026-05-05 08:09 | -37.90808 | 172.25597 | 36406 ft | 476 kts | 251° |
| 2026-05-05 08:09 | -37.92996 | 172.17729 | 36406 ft | 475 kts | 250° |
| 2026-05-05 08:10 | -37.95204 | 172.09847 | 36400 ft | 474 kts | 250° |
| 2026-05-05 08:10 | -37.97400 | 172.02011 | 36400 ft | 476 kts | 250° |
| 2026-05-05 08:11 | -37.99616 | 171.94083 | 36402 ft | 476 kts | 250° |
| 2026-05-05 08:11 | -38.01804 | 171.86227 | 36402 ft | 475 kts | 250° |
| 2026-05-05 08:12 | -38.03991 | 171.78357 | 36401 ft | 475 kts | 250° |
| 2026-05-05 08:12 | -38.06171 | 171.70487 | 36400 ft | 475 kts | 250° |
| 2026-05-05 08:13 | -38.08349 | 171.62602 | 36400 ft | 475 kts | 250° |
| 2026-05-05 08:13 | -38.10533 | 171.54668 | 36394 ft | 476 kts | 250° |
| 2026-05-05 08:14 | -38.12703 | 171.46756 | 36392 ft | 475 kts | 250° |
| 2026-05-05 08:14 | -38.14851 | 171.38898 | 36395 ft | 475 kts | 250° |
| 2026-05-05 08:15 | -38.17005 | 171.30951 | 36386 ft | 474 kts | 251° |
| 2026-05-05 08:15 | -38.19101 | 171.23067 | 36386 ft | 474 kts | 251° |
| 2026-05-05 08:16 | -38.21228 | 171.15144 | 36378 ft | 474 kts | 251° |
| 2026-05-05 08:16 | -38.23354 | 171.07263 | 36384 ft | 475 kts | 251° |
| 2026-05-05 08:17 | -38.25486 | 170.99350 | 36382 ft | 474 kts | 251° |
| 2026-05-05 08:17 | -38.27092 | 170.91231 | 36385 ft | 474 kts | 265° |
| 2026-05-05 08:18 | -38.27259 | 170.82849 | 36377 ft | 476 kts | 269° |
| 2026-05-05 08:18 | -38.27197 | 170.74463 | 36377 ft | 475 kts | 269° |
| 2026-05-05 08:19 | -38.27150 | 170.66141 | 36377 ft | 474 kts | 269° |
| 2026-05-05 08:19 | -38.27121 | 170.57732 | 36372 ft | 474 kts | 269° |
| 2026-05-05 08:20 | -38.27094 | 170.49344 | 36376 ft | 474 kts | 269° |
| 2026-05-05 08:20 | -38.27064 | 170.41014 | 36372 ft | 473 kts | 269° |
| 2026-05-05 08:21 | -38.27023 | 170.32666 | 36380 ft | 473 kts | 270° |
| 2026-05-05 08:21 | -38.26932 | 170.24291 | 36377 ft | 473 kts | 270° |
| 2026-05-05 08:22 | -38.26856 | 170.15945 | 36375 ft | 473 kts | 270° |
| 2026-05-05 08:22 | -38.26794 | 170.07576 | 36365 ft | 474 kts | 270° |
| 2026-05-05 08:23 | -38.26733 | 169.99252 | 36366 ft | 474 kts | 269° |
| 2026-05-05 08:23 | -38.26666 | 169.90868 | 36365 ft | 473 kts | 269° |
| 2026-05-05 08:24 | -38.26594 | 169.82535 | 36360 ft | 472 kts | 270° |
| 2026-05-05 08:24 | -38.26516 | 169.74220 | 36359 ft | 472 kts | 270° |
| 2026-05-05 08:25 | -38.26432 | 169.65942 | 36353 ft | 471 kts | 270° |
| 2026-05-05 08:25 | -38.26342 | 169.57617 | 36353 ft | 471 kts | 270° |
| 2026-05-05 08:26 | -38.26247 | 169.49350 | 36349 ft | 471 kts | 270° |
| 2026-05-05 08:26 | -38.26145 | 169.41003 | 36348 ft | 472 kts | 270° |
| 2026-05-05 08:27 | -38.26034 | 169.32710 | 36346 ft | 471 kts | 270° |
| 2026-05-05 08:27 | -38.25873 | 169.24390 | 36341 ft | 470 kts | 271° |
| 2026-05-05 08:28 | -38.25727 | 169.16115 | 36343 ft | 470 kts | 270° |
| 2026-05-05 08:28 | -38.25596 | 169.07869 | 36343 ft | 470 kts | 270° |
| 2026-05-05 08:29 | -38.25465 | 168.99597 | 36341 ft | 468 kts | 270° |
| 2026-05-05 08:30 | -38.25259 | 168.87230 | 36337 ft | 468 kts | 270° |
| 2026-05-05 08:30 | -38.25115 | 168.78969 | 36335 ft | 469 kts | 270° |
| 2026-05-05 08:31 | -38.24965 | 168.70689 | 36333 ft | 469 kts | 270° |
| 2026-05-05 08:31 | -38.24809 | 168.62456 | 36339 ft | 468 kts | 270° |
| 2026-05-05 08:32 | -38.24647 | 168.54185 | 36342 ft | 467 kts | 270° |
| 2026-05-05 08:32 | -38.24480 | 168.45979 | 36339 ft | 468 kts | 270° |
| 2026-05-05 08:33 | -38.24307 | 168.37697 | 36332 ft | 467 kts | 270° |
| 2026-05-05 08:33 | -38.24106 | 168.29469 | 36329 ft | 466 kts | 271° |
| 2026-05-05 08:34 | -38.23879 | 168.21258 | 36324 ft | 465 kts | 271° |
| 2026-05-05 08:34 | -38.23673 | 168.13097 | 36320 ft | 465 kts | 271° |
| 2026-05-05 08:35 | -38.23474 | 168.04901 | 36318 ft | 466 kts | 271° |
| 2026-05-05 08:35 | -38.23273 | 167.96683 | 36318 ft | 465 kts | 271° |
| 2026-05-05 08:36 | -38.23066 | 167.88483 | 36314 ft | 465 kts | 271° |
| 2026-05-05 08:36 | -38.22854 | 167.80283 | 36314 ft | 464 kts | 271° |
| 2026-05-05 08:37 | -38.22637 | 167.72101 | 36312 ft | 464 kts | 271° |
| 2026-05-05 08:37 | -38.22414 | 167.63917 | 36312 ft | 464 kts | 271° |
| 2026-05-05 08:38 | -38.22185 | 167.55740 | 36307 ft | 463 kts | 271° |
| 2026-05-05 08:38 | -38.21950 | 167.47559 | 36306 ft | 464 kts | 271° |
| 2026-05-05 08:39 | -38.21711 | 167.39389 | 36304 ft | 463 kts | 271° |
| 2026-05-05 08:39 | -38.21453 | 167.31212 | 36305 ft | 464 kts | 272° |
| 2026-05-05 08:40 | -38.21156 | 167.23061 | 36304 ft | 464 kts | 272° |
| 2026-05-05 08:40 | -38.20876 | 167.14877 | 36303 ft | 463 kts | 271° |
| 2026-05-05 08:41 | -38.20609 | 167.06740 | 36301 ft | 462 kts | 271° |
| 2026-05-05 08:41 | -38.20341 | 166.98604 | 36301 ft | 462 kts | 271° |
| 2026-05-05 08:42 | -38.20070 | 166.90520 | 36300 ft | 461 kts | 271° |
| 2026-05-05 08:42 | -38.19792 | 166.82378 | 36299 ft | 461 kts | 271° |
| 2026-05-05 08:43 | -38.19509 | 166.74272 | 36299 ft | 461 kts | 271° |
| 2026-05-05 08:43 | -38.19223 | 166.66217 | 36301 ft | 459 kts | 271° |
| 2026-05-05 08:44 | -38.18928 | 166.58099 | 36300 ft | 459 kts | 271° |
| 2026-05-05 08:44 | -38.18631 | 166.50058 | 36298 ft | 457 kts | 271° |
| 2026-05-05 08:45 | -38.18328 | 166.42023 | 36297 ft | 457 kts | 271° |
| 2026-05-05 08:45 | -38.18019 | 166.33984 | 36289 ft | 456 kts | 272° |
| 2026-05-05 08:46 | -38.17661 | 166.25922 | 36284 ft | 457 kts | 272° |
| 2026-05-05 08:46 | -38.17313 | 166.17937 | 36284 ft | 456 kts | 272° |
| 2026-05-05 08:47 | -38.16979 | 166.09903 | 36280 ft | 456 kts | 272° |
| 2026-05-05 08:47 | -38.16648 | 166.01889 | 36275 ft | 454 kts | 272° |
| 2026-05-05 08:48 | -38.16316 | 165.93938 | 36278 ft | 454 kts | 272° |
| 2026-05-05 08:48 | -38.15979 | 165.85992 | 36272 ft | 452 kts | 272° |
| 2026-05-05 08:49 | -38.15634 | 165.77997 | 36268 ft | 451 kts | 272° |
| 2026-05-05 08:49 | -38.15288 | 165.70094 | 36267 ft | 451 kts | 272° |
| 2026-05-05 08:50 | -38.14936 | 165.62178 | 36258 ft | 448 kts | 272° |
| 2026-05-05 08:50 | -38.14580 | 165.54297 | 36260 ft | 449 kts | 272° |
| 2026-05-05 08:51 | -38.14219 | 165.46422 | 36259 ft | 448 kts | 272° |
| 2026-05-05 08:51 | -38.13853 | 165.38536 | 36264 ft | 448 kts | 272° |
| 2026-05-05 08:52 | -38.13467 | 165.30669 | 36259 ft | 447 kts | 274° |
| 2026-05-05 08:52 | -38.13048 | 165.22861 | 36261 ft | 447 kts | 274° |
| 2026-05-05 08:53 | -38.12647 | 165.15010 | 36255 ft | 443 kts | 273° |
| 2026-05-05 08:53 | -38.12262 | 165.07277 | 36258 ft | 441 kts | 273° |
| 2026-05-05 08:54 | -38.11872 | 164.99484 | 36256 ft | 441 kts | 273° |
| 2026-05-05 08:54 | -38.11482 | 164.91757 | 36250 ft | 441 kts | 274° |
| 2026-05-05 08:55 | -38.11084 | 164.83971 | 36252 ft | 441 kts | 274° |
| 2026-05-05 08:55 | -38.10681 | 164.76216 | 36249 ft | 442 kts | 273° |
| 2026-05-05 08:56 | -38.10276 | 164.68483 | 36250 ft | 441 kts | 274° |
| 2026-05-05 08:56 | -38.09864 | 164.60730 | 36247 ft | 441 kts | 274° |
| 2026-05-05 08:57 | -38.09449 | 164.53005 | 36246 ft | 441 kts | 274° |
| 2026-05-05 08:57 | -38.09028 | 164.45283 | 36243 ft | 440 kts | 274° |
| 2026-05-05 08:58 | -38.08604 | 164.37584 | 36238 ft | 438 kts | 274° |
| 2026-05-05 08:58 | -38.08151 | 164.29858 | 36240 ft | 438 kts | 275° |
| 2026-05-05 08:59 | -38.07677 | 164.22201 | 36237 ft | 437 kts | 275° |
| 2026-05-05 08:59 | -38.07220 | 164.14502 | 36233 ft | 437 kts | 275° |
| 2026-05-05 09:00 | -38.06775 | 164.06880 | 36236 ft | 436 kts | 275° |
| 2026-05-05 09:00 | -38.06326 | 163.99222 | 36240 ft | 437 kts | 275° |
| 2026-05-05 09:01 | -38.05872 | 163.91534 | 36228 ft | 437 kts | 275° |
| 2026-05-05 09:01 | -38.05414 | 163.83868 | 36230 ft | 437 kts | 275° |